CST,Max TemperatureF,Mean TemperatureF,Min TemperatureF,Max Dew PointF,MeanDew PointF,Min DewpointF,Max Humidity, Mean Humidity, Min Humidity, Max Sea Level PressureIn, Mean Sea Level PressureIn, Min Sea Level PressureIn, Max VisibilityMiles, Mean VisibilityMiles, Min VisibilityMiles, Max Wind SpeedMPH, Mean Wind SpeedMPH, Max Gust SpeedMPH,PrecipitationIn, CloudCover, Events, WindDirDegrees
2012-2-1,45,38,31,41,36,31,100,98,82,30.22,30.13,30.01,10,6,0,12,6,,0.00,4,Fog,339
2012-2-2,54,40,26,41,32,26,100,95,55,30.41,30.28,30.19,10,3,0,9,3,,0.00,4,Fog,172
2012-2-3,52,40,28,44,36,28,100,97,69,30.46,30.36,30.27,10,3,0,24,10,,0.01,4,Fog-Rain,70
2012-2-4,39,36,32,39,36,33,100,100,100,30.27,30.19,30.10,5,3,1,24,18,,0.21,8,Rain,62
2012-2-5,41,34,26,36,31,27,100,95,76,30.36,30.28,30.18,10,6,1,12,7,,0.00,1,,358
2012-2-6,30,27,24,30,28,25,100,100,96,30.31,30.25,30.16,10,2,0,12,7,,0.00,6,Fog,255
2012-2-7,32,26,21,32,27,21,100,100,92,30.42,30.29,30.19,10,3,0,15,6,,0.00,7,Fog-Rain-Snow,32
2012-2-8,30,26,21,27,23,16,100,86,69,30.47,30.40,30.35,10,9,2,15,12,,0.00,7,Snow,328
2012-2-9,32,24,17,26,21,16,96,76,59,30.39,30.30,30.18,10,10,10,14,7,,0.00,4,,234
2012-2-10,34,24,15,34,25,4,100,91,62,30.29,30.06,29.94,10,6,1,30,14,38,0.00,7,Rain-Snow,266
2012-2-11,23,16,10,4,1,-1,70,52,35,30.52,30.47,30.32,10,10,10,25,20,,0.00,0,,313
2012-2-12,32,23,14,9,4,-1,60,45,27,30.52,30.43,30.32,10,10,10,20,14,,0.00,0,,273
2012-2-13,32,25,18,29,22,7,100,84,40,30.31,30.01,29.86,10,5,0,21,12,,0.00,7,Fog-Snow,183
2012-2-14,37,32,26,34,30,27,100,96,79,30.09,29.94,29.83,10,6,0,14,10,,0.00,7,Fog-Snow,222
2012-2-15,41,36,31,39,37,31,100,99,92,30.11,30.02,29.96,10,3,0,22,14,,0.00,7,Fog-Rain,176
2012-2-16,45,38,31,39,34,24,100,89,48,30.23,30.09,29.96,10,4,0,17,9,,0.01,6,Fog-Rain,280
2012-2-17,50,37,24,33,29,23,100,72,48,30.25,30.16,30.09,10,10,10,21,9,,0.00,2,,216
2012-2-18,38,31,22,27,24,20,92,74,53,30.24,30.20,30.13,10,10,10,17,10,,0.00,1,,20
2012-2-19,37,28,19,23,20,18,100,77,45,30.26,30.22,30.18,10,10,10,12,9,,0.00,0,,52
2012-2-20,41,32,22,27,23,18,96,68,47,30.33,30.16,29.87,10,10,10,21,11,,0.00,0,,143
2012-2-21,47,40,32,41,33,27,100,83,50,29.84,29.75,29.65,10,9,3,21,14,,0.09,5,Snow,211
2012-2-22,50,41,32,32,30,28,89,70,48,29.76,29.56,29.45,10,10,10,13,8,,0.00,2,,235
2012-2-23,47,38,29,43,37,29,100,95,74,29.54,29.47,29.39,10,9,2,25,10,,0.04,5,Rain,106
2012-2-24,39,32,24,39,31,16,100,90,59,30.11,29.64,29.38,10,6,1,26,14,37,0.02,8,Rain-Snow,274
2012-2-25,29,24,19,20,14,10,85,68,49,30.38,30.26,30.11,10,10,10,22,12,,0.00,3,Snow,284
2012-2-26,54,38,22,29,25,17,85,54,31,30.33,30.14,30.02,10,10,10,36,19,45,0.00,0,,192
2012-2-27,41,33,23,26,20,16,89,58,38,30.52,30.41,30.18,10,10,10,21,11,31,0.00,1,,317
2012-2-28,54,38,21,45,31,19,100,73,29,30.52,30.14,29.75,10,8,1,21,11,,0.62,5,Rain-Thunderstorm,122
2012-2-29,59,46,34,59,41,25,100,72,35,29.77,29.60,29.49,10,10,6,39,20,52,0.01,3,,225